ADDS METAR Data INFO
IDs: Format: Raw Decoded Include TAF

Data at: 1917 UTC 23 Apr 2018

KGLH 231900Z 22009KT 10SM BKN026 OVC031 17/12 A2992 RMK AO2 T01670117
KGLH 231853Z 22009KT 10SM FEW022 OVC030 17/12 A2992 RMK AO2 SLP139 T01670117
KGLH 231753Z 23012KT 10SM FEW021 SCT041 18/12 A2993 RMK AO2 SLP141 T01780122 10178 20117 58004
KGLH 231653Z 22009KT 10SM FEW018 OVC039 16/12 A2994 RMK AO2 SLP145 T01610117
KGLH 231553Z 25010KT 10SM BKN017 OVC022 16/11 A2995 RMK AO2 SLP148 T01560111
KGLH 231530Z 26009KT 10SM BKN015 OVC038 15/11 A2994 RMK AO2 T01500111
KGLH 231453Z 25008KT 10SM OVC012 14/11 A2994 RMK AO2 SLP145 T01440111 51010
KGLH 231353Z 26009KT 10SM OVC010 13/11 A2994 RMK AO2 SLP145 T01330106
KGLH 231328Z 25008KT 10SM BKN010 OVC033 13/11 A2994 RMK AO2 T01280106
KGLH 231253Z 25008KT 10SM OVC031 12/11 A2994 RMK AO2 SLP144 T01220106
KGLH 231153Z 26005KT 10SM CLR 12/10 A2991 RMK AO2 SLP136 70003 T01220100 10144 20117 53011
KGLH 231053Z AUTO 28008KT 10SM SCT060 12/09 A2989 RMK AO2 SLP128 T01220094
KGLH 231016Z AUTO 26006KT 10SM SCT025 OVC060 12/10 A2989 RMK AO2 T01220100
KGLH 230953Z AUTO 28008KT 10SM OVC024 13/10 A2989 RMK AO2 SLP129 T01280100
KGLH 230938Z AUTO 29006KT 10SM BKN023 BKN050 OVC065 13/10 A2989 RMK AO2 T01280100
KGLH 230907Z AUTO 29009KT 10SM SCT026 OVC060 13/10 A2988 RMK AO2 T01280100
KGLH 230853Z AUTO 29009KT 10SM BKN026 OVC055 13/10 A2988 RMK AO2 SLP124 T01280100 58003
KGLH 230753Z AUTO 27009KT 10SM SCT016 OVC024 13/10 A2988 RMK AO2 SLP125 T01280100
KGLH 230719Z AUTO 27008KT 10SM BKN016 OVC023 13/10 A2988 RMK AO2 T01330100
KGLH 230711Z AUTO 28010KT 10SM BKN014 OVC060 13/11 A2988 RMK AO2 T01330106
KGLH 230702Z AUTO 27009KT 10SM BKN016 OVC065 13/11 A2988 RMK AO2 T01330106
KGLH 230653Z AUTO 28008KT 10SM SCT018 OVC065 13/11 A2988 RMK AO2 SLP126 T01330106
KGLH 230553Z AUTO 28011KT 10SM FEW021 OVC060 14/11 A2989 RMK AO2 SLP127 T01440106 10194 20144 402060144 50000
KGLH 230542Z AUTO 28009KT 10SM FEW021 OVC065 14/11 A2989 RMK AO2 T01440111
KGLH 230453Z AUTO 27007KT 10SM BKN022 14/11 A2989 RMK AO2 SLP129 T01440111
KGLH 230430Z AUTO 27010KT 10SM BKN022 BKN048 BKN080 15/11 A2989 RMK AO2 T01500111
KGLH 230353Z AUTO 28012KT 10SM SCT025 OVC035 15/11 A2989 RMK AO2 SLP129 T01500111
KGLH 230253Z AUTO 28014G25KT 10SM BKN060 BKN075 16/12 A2988 RMK AO2 SLP127 T01610117 53020
KGLH 230201Z AUTO 27014KT 10SM SCT026 BKN038 OVC050 17/13 A2987 RMK AO2 T01720128
KGLH 230153Z AUTO 28012KT 10SM BKN026 BKN033 OVC050 17/13 A2987 RMK AO2 SLP121 T01720133
KGLH 230121Z AUTO 29012KT 10SM FEW016 BKN023 OVC042 18/13 A2985 RMK AO2 T01830133
KGLH 230053Z AUTO 25008KT 10SM SCT034 BKN042 OVC080 18/14 A2984 RMK AO2 SLP110 T01830139
KGLH 222353Z AUTO 28008KT 10SM SCT031 SCT042 BKN075 19/13 A2983 RMK AO2 SLP106 60000 T01940133 10206 20167 55006
KGLH 222346Z AUTO 27009KT 10SM BKN031 BKN042 19/14 A2982 RMK AO2 T01940139
KGLH 222312Z 26010KT 10SM BKN027 BKN046 BKN060 20/14 A2982 RMK AO2 T02000144
KGLH 222253Z 26008KT 10SM FEW023 SCT027 20/14 A2982 RMK AO2 SLP103 T02000144
KGLH 222217Z 26007KT 10SM FEW019 20/15 A2982 RMK AO2 T02000150
KGLH 222153Z 29005KT 10SM SCT019 BKN027 19/16 A2982 RMK AO2 SLP104 T01940156
KGLH 222135Z 24007KT 10SM SCT014 SCT020 BKN027 19/15 A2983 RMK AO2 T01890150
KGLH 222113Z VRB05KT 10SM BKN012 19/16 A2984 RMK AO2 T01940161
KGLH 222053Z 24007KT 10SM SCT012 BKN048 18/15 A2984 RMK AO2 RAE04 SLP113 P0000 60000 T01830150 58017
KGLH 222034Z 24006KT 10SM SCT019 BKN047 19/17 A2985 RMK AO2 RAE04 P0000 T01890167
KGLH 222005Z 25006KT 10SM SCT012 OVC020 17/15 A2987 RMK AO2 RAE04 P0000 T01720150
KGLH 221953Z 25007KT 10SM -RA BKN012 OVC021 17/14 A2987 RMK AO2 RAB04E13B25E37B47 SLP123 P0000 T01720144
KGLH 221944Z 27004KT 10SM BKN012 OVC021 18/14 A2988 RMK AO2 RAB04E13B25E37 P0000 T01780144
KGLH 221922Z 26003KT 10SM FEW016 BKN021 OVC029 18/14 A2988 RMK AO2 RAB04E13 P0000 T01780144
KGLH 221913Z 00000KT 9SM SCT016 SCT022 OVC031 18/14 A2988 RMK AO2 RAB04E13 P0000 T01780144
KGLH 221902Z 00000KT 10SM FEW012 BKN018 OVC034 18/14 A2989 RMK AO2 T01780144
KGLH 221853Z 00000KT 10SM FEW012 SCT020 OVC034 18/14 A2989 RMK AO2 RAE08 SLP127 P0000 T01780139
KGLH 221809Z 00000KT 10SM SCT014 OVC040 17/15 A2989 RMK AO2 RAE08 P0000 T01720150
KGLH 221753Z 18003KT 7SM -RA BKN016 OVC044 17/14 A2990 RMK AO2 RAE29B49 SLP129 P0000 60003 T01670144 10172 20161 57006
KGLH 221748Z 19003KT 9SM FEW009 BKN016 OVC044 17/14 A2990 RMK AO2 RAE29 P0000
KGLH 221725Z 18005KT 6SM -RA BR BKN017 BKN037 OVC046 17/16 A2990 RMK AO2 P0000 T01720156
KGLH 221717Z 18004KT 3SM -RA BR FEW008 BKN014 OVC036 17/16 A2991 RMK AO2 P0000 T01670156
KGLH 221659Z 18005KT 7SM -RA SCT009 BKN035 OVC044 17/15 A2991 RMK AO2 P0000 T01670150
KGLH 221653Z 20003KT 8SM -RA BKN009 BKN033 OVC040 17/16 A2991 RMK AO2 SLP135 P0003 T01670156
KGLH 221553Z 15009KT 10SM -RA FEW009 BKN036 OVC048 17/15 A2991 RMK AO2 SLP136 P0000 T01670150
KGLH 221544Z 16008KT 10SM -RA FEW009 BKN038 OVC048 17/15 A2992 RMK AO2 P0000 T01670150
KGLH 221453Z 16009KT 10SM -RA SCT050 BKN070 OVC100 17/16 A2991 RMK AO2 SLP136 P0000 60000 T01670156 50002
KGLH 221353Z 19008KT 10SM -RA SCT005 BKN050 OVC110 17/15 A2992 RMK AO2 RAE31B51 SLP138 P0000 T01670150
KGLH 221313Z 19009KT 9SM -RA SCT004 BKN050 OVC095 17/15 A2992 RMK AO2 P0000 T01670150
KGLH 221300Z 17008KT 10SM -RA BKN005 OVC090 16/15 A2991 RMK AO2 P0000 T01610150
KGLH 221253Z 19010KT 9SM -RA BKN003 OVC090 16/15 A2992 RMK AO2 RAE13B20 CIG 002V006 SLP137 P0000 T01610150
KGLH 221217Z 19003KT 6SM BR BKN003 OVC080 16/15 A2990 RMK AO2 RAE13 P0000 T01610150
KGLH 221201Z 27003KT 10SM -RA FEW003 OVC070 16/15 A2990 RMK AO2 P0000 T01610150
KGLH 221153Z 25004KT 10SM -RA SCT060 OVC075 16/15 A2991 RMK AO2 SLP134 P0016 60062 70062 T01610150 10194 20161 55003
KGLH 221128Z AUTO 23005KT 3SM -RA BR SCT008 SCT015 OVC050 17/16 A2992 RMK AO2 P0016 T01670156
KGLH 221125Z AUTO 22006KT 2SM RA BR SCT008 BKN016 OVC050 17/15 A2992 RMK AO2 P0016 T01670150
KGLH 221112Z AUTO VRB05KT 1 3/4SM +RA BR BKN008 BKN013 OVC018 17/16 A2992 RMK AO2 CIG 004V009 P0009 T01670156
KGLH 221107Z AUTO 24007KT 200V270 3SM RA BR BKN008 OVC016 17/16 A2992 RMK AO2 CIG 006V010 PRESRR P0003 T01670156
KGLH 221055Z AUTO 13008KT 2 1/2SM RA BR SCT007 BKN016 OVC020 17/16 A2990 RMK AO2 P0001 T01670156
KGLH 221053Z AUTO 12007KT 3SM RA BR FEW007 BKN013 OVC019 17/16 A2990 RMK AO2 SLP130 P0015 T01670156
KGLH 221039Z AUTO 12006KT 2SM +RA BR FEW007 BKN020 OVC026 17/16 A2990 RMK AO2 P0013 T01670156
KGLH 221032Z AUTO 10007KT 3SM +RA BR FEW008 BKN022 OVC028 17/16 A2990 RMK AO2 P0008 T01670156
KGLH 221016Z AUTO 11009KT 4SM RA BR BKN022 BKN026 OVC060 17/15 A2991 RMK AO2 P0003 T01670150
KGLH 221005Z AUTO 12007KT 4SM RA BR SCT019 BKN030 OVC055 17/15 A2992 RMK AO2 P0001 T01670150
KGLH 220953Z AUTO 11008KT 5SM RA BR BKN019 BKN030 OVC055 17/15 A2992 RMK AO2 SLP137 P0010 T01670150
KGLH 220919Z AUTO 07008KT 3SM RA BR SCT021 BKN027 OVC044 16/15 A2993 RMK AO2 P0008 T01610150
KGLH 220911Z AUTO 07008KT 2 1/2SM +RA BR FEW021 BKN027 OVC049 16/15 A2994 RMK AO2 P0006 T01610150
KGLH 220904Z AUTO 05010KT 3SM RA BR FEW021 BKN027 OVC070 16/14 A2994 RMK AO2 PRESFR P0004 T01610144
KGLH 220853Z AUTO 04006KT 2 1/2SM +RA BR FEW029 BKN055 OVC095 16/15 A2996 RMK AO2 SLP151 P0017 60021 T01610150 58002
KGLH 220834Z AUTO 01006KT 4SM -RA BR SCT037 BKN050 OVC100 16/14 A2996 RMK AO2 P0013 T01610144
KGLH 220818Z AUTO 36005KT 2SM +RA BR SCT032 BKN042 OVC055 16/14 A2996 RMK AO2 P0010 T01610144
KGLH 220808Z AUTO 36005KT 3SM RA BR FEW030 BKN041 OVC055 16/14 A2997 RMK AO2 P0003 T01610144
KGLH 220753Z AUTO 32004KT 2 1/2SM RA BR FEW031 BKN048 OVC080 17/14 A2999 RMK AO2 RAB0655 SLP161 P0004 T01670144